Time;durP1;ratioP1;P1;durP2;ratioP2;P2;SDS_P1;SDS_P2;PMS_P1;PMS_P2;Temp;Humidity;BMP_temperature;BMP_pressure;BME280_temperature;BME280_humidity;BME280_pressure;Samples;Min_cycle;Max_cycle;Signal;HPM_P1;HPM_P2
2021/03/31 00:00:44;;;;;;;18.00;9.85;;;12.60;99.90;;;;;;4995228;28;20050;-86
2021/03/31 00:03:12;;;;;;;14.32;9.38;;;12.50;99.90;;;;;;4994837;28;20043;-86
2021/03/31 00:05:38;;;;;;;22.23;10.05;;;;;;;;;;4994776;28;20407;-86
2021/03/31 00:08:06;;;;;;;14.98;9.63;;;;;;;;;;4994965;28;20104;-86
2021/03/31 00:10:34;;;;;;;23.98;9.25;;;12.50;99.90;;;;;;4994878;28;20356;-87
2021/03/31 00:13:02;;;;;;;19.20;8.75;;;;;;;;;;4995093;28;20058;-85
2021/03/31 00:15:29;;;;;;;23.58;9.38;;;;;;;;;;4994867;28;20057;-87
2021/03/31 00:17:55;;;;;;;15.05;8.55;;;12.50;99.90;;;;;;4995418;28;20065;-87
2021/03/31 00:20:22;;;;;;;17.13;9.27;;;12.40;99.90;;;;;;4995042;28;20116;-87
2021/03/31 00:22:49;;;;;;;19.98;9.55;;;;;;;;;;4994914;28;20042;-87
2021/03/31 00:25:16;;;;;;;19.52;8.95;;;12.30;99.90;;;;;;4995092;28;20054;-87
2021/03/31 00:27:43;;;;;;;16.48;8.13;;;;;;;;;;4994707;28;20056;-87
2021/03/31 00:30:12;;;;;;;17.15;9.20;;;12.20;99.90;;;;;;4994781;28;20050;-87
2021/03/31 00:32:39;;;;;;;14.10;9.30;;;12.20;99.90;;;;;;4994732;28;20055;-87
2021/03/31 00:35:06;;;;;;;19.85;9.68;;;;;;;;;;4994658;28;20053;-87
2021/03/31 00:37:33;;;;;;;20.67;9.07;;;12.00;99.90;;;;;;4997490;28;20189;-87
2021/03/31 00:40:00;;;;;;;21.55;9.73;;;11.90;99.90;;;;;;4998727;28;20046;-87
2021/03/31 00:42:30;;;;;;;17.27;9.27;;;11.90;99.90;;;;;;4998574;28;20046;-87
2021/03/31 00:44:56;;;;;;;14.88;8.25;;;11.90;99.90;;;;;;4998742;28;20364;-86
2021/03/31 00:47:24;;;;;;;11.63;8.30;;;11.90;99.90;;;;;;4998569;28;20181;-86
2021/03/31 00:49:50;;;;;;;16.25;8.57;;;11.90;99.90;;;;;;4998645;28;20050;-86
2021/03/31 00:52:17;;;;;;;15.82;9.25;;;11.80;99.90;;;;;;4998329;28;20064;-86
2021/03/31 00:54:43;;;;;;;14.55;7.85;;;11.80;99.90;;;;;;4998586;28;20061;-86
2021/03/31 00:57:10;;;;;;;13.80;8.23;;;11.80;99.90;;;;;;4998348;28;20113;-86
2021/03/31 00:59:37;;;;;;;19.30;8.82;;;11.70;99.90;;;;;;4998427;28;20479;-86
2021/03/31 01:02:04;;;;;;;14.15;8.20;;;11.60;99.90;;;;;;4998431;28;20050;-86
2021/03/31 01:04:31;;;;;;;13.07;8.90;;;;;;;;;;4997921;28;20046;-87
2021/03/31 01:06:58;;;;;;;24.13;9.38;;;11.50;99.90;;;;;;4998212;28;20054;-89
2021/03/31 01:09:25;;;;;;;16.02;7.65;;;11.50;99.90;;;;;;4998032;28;20058;-89
2021/03/31 01:11:58;;;;;;;18.02;9.35;;;11.50;99.90;;;;;;4998472;28;20064;-89
2021/03/31 01:14:28;;;;;;;18.65;9.02;;;11.40;99.90;;;;;;4998361;28;20043;-88
2021/03/31 01:16:57;;;;;;;15.90;9.48;;;11.40;99.90;;;;;;4998314;28;20057;-89
2021/03/31 01:19:51;;;;;;;13.82;8.55;;;11.40;99.90;;;;;;4998379;28;20080;-89
2021/03/31 01:22:44;;;;;;;19.67;9.02;;;11.30;99.90;;;;;;4994351;28;20434;-89
2021/03/31 01:25:15;;;;;;;18.75;10.45;;;11.30;99.90;;;;;;4998198;28;20050;-89
2021/03/31 01:28:01;;;;;;;15.18;9.25;;;11.30;99.90;;;;;;4997835;28;20054;-89
2021/03/31 01:30:28;;;;;;;;;;;11.30;99.90;;;;;;4976515;28;20068;-89
2021/03/31 01:33:32;;;;;;;18.50;9.05;;;11.20;99.90;;;;;;4997845;28;20258;-89
2021/03/31 01:36:00;;;;;;;15.35;8.82;;;;;;;;;;4997640;28;20065;-89
2021/03/31 01:38:27;;;;;;;14.82;8.80;;;11.10;99.90;;;;;;4997627;28;20109;-89
2021/03/31 01:40:53;;;;;;;16.90;8.52;;;11.10;99.90;;;;;;4997551;28;20050;-89
2021/03/31 01:43:21;;;;;;;20.48;10.00;;;11.20;99.90;;;;;;4997555;28;20472;-89
2021/03/31 01:45:49;;;;;;;21.25;9.98;;;11.10;99.90;;;;;;4997196;28;20483;-90
2021/03/31 01:48:17;;;;;;;16.85;9.88;;;11.10;99.90;;;;;;4997076;28;20058;-89
2021/03/31 01:50:43;;;;;;;17.65;9.23;;;11.10;99.90;;;;;;4997518;28;20479;-89
2021/03/31 01:53:11;;;;;;;19.52;9.90;;;11.10;99.90;;;;;;4997488;28;20165;-89
2021/03/31 01:55:44;;;;;;;16.17;8.45;;;11.10;99.90;;;;;;4997447;28;20054;-89
2021/03/31 01:58:11;;;;;;;18.60;9.27;;;11.00;99.90;;;;;;4997262;28;20065;-89
2021/03/31 02:00:37;;;;;;;20.90;9.48;;;10.90;99.90;;;;;;4997482;28;20068;-89
2021/03/31 02:03:04;;;;;;;16.83;9.68;;;10.90;99.90;;;;;;4997102;28;20123;-89
2021/03/31 02:05:31;;;;;;;15.70;8.75;;;10.90;99.90;;;;;;4997144;28;20054;-88
2021/03/31 02:07:57;;;;;;;18.58;8.70;;;10.90;99.90;;;;;;4996991;28;20475;-88
2021/03/31 02:10:25;;;;;;;17.58;9.52;;;;;;;;;;4997389;28;20051;-89
2021/03/31 02:12:52;;;;;;;22.20;9.88;;;10.80;99.90;;;;;;4997355;28;20058;-89
2021/03/31 02:15:19;;;;;;;19.00;9.23;;;10.60;99.90;;;;;;4997126;28;20050;-89
2021/03/31 02:17:46;;;;;;;18.20;8.77;;;;;;;;;;4997264;28;20050;-89
2021/03/31 02:20:15;;;;;;;20.95;10.25;;;10.90;99.90;;;;;;4997062;28;20479;-90
2021/03/31 02:22:41;;;;;;;16.30;8.25;;;10.70;99.90;;;;;;4997145;28;20056;-89
2021/03/31 02:25:09;;;;;;;18.02;8.90;;;10.60;99.90;;;;;;4996879;28;20058;-89
2021/03/31 02:27:38;;;;;;;17.15;8.50;;;;;;;;;;4996694;28;20444;-89
2021/03/31 02:30:06;;;;;;;15.45;8.73;;;10.60;99.90;;;;;;4996715;28;20464;-89
2021/03/31 02:32:32;;;;;;;13.77;8.10;;;10.60;99.90;;;;;;4996850;28;20054;-89
2021/03/31 02:34:59;;;;;;;18.98;8.65;;;10.60;99.90;;;;;;4996298;28;20057;-89
2021/03/31 02:37:25;;;;;;;15.00;8.07;;;;;;;;;;4996751;28;20076;-89
2021/03/31 02:39:53;;;;;;;17.25;8.43;;;10.40;99.90;;;;;;4996531;28;20058;-89
2021/03/31 02:42:20;;;;;;;18.60;10.02;;;10.50;99.90;;;;;;4996545;28;20108;-89
2021/03/31 02:44:48;;;;;;;20.60;9.55;;;;;;;;;;4996474;28;20046;-89
2021/03/31 02:47:16;;;;;;;19.02;9.45;;;10.40;99.90;;;;;;4996283;28;20062;-89
2021/03/31 02:49:44;;;;;;;16.75;8.82;;;10.40;99.90;;;;;;4996276;28;20054;-89
2021/03/31 02:52:10;;;;;;;22.75;9.63;;;10.40;99.90;;;;;;4996294;28;20463;-89
2021/03/31 02:54:37;;;;;;;16.70;9.15;;;10.40;99.90;;;;;;4996571;28;20046;-89
2021/03/31 02:57:04;;;;;;;19.35;8.68;;;;;;;;;;4996360;28;20379;-89
2021/03/31 02:59:31;;;;;;;14.55;8.98;;;;;;;;;;4995686;28;20140;-90
2021/03/31 03:01:59;;;;;;;14.77;8.32;;;;;;;;;;4996348;28;20395;-89
2021/03/31 03:04:26;;;;;;;19.80;9.10;;;;;;;;;;4995662;28;20104;-89
2021/03/31 03:06:52;;;;;;;17.85;9.52;;;;;;;;;;4996068;28;20050;-89
2021/03/31 03:09:19;;;;;;;21.95;9.68;;;10.10;99.90;;;;;;4996001;28;20045;-89
2021/03/31 03:11:46;;;;;;;14.75;9.50;;;10.20;99.90;;;;;;4995894;28;20451;-90
2021/03/31 03:14:12;;;;;;;14.88;9.90;;;10.20;99.90;;;;;;4995902;28;20046;-90
2021/03/31 03:16:39;;;;;;;17.83;9.63;;;;;;;;;;4995739;28;20064;-89
2021/03/31 03:19:07;;;;;;;21.48;10.82;;;;;;;;;;4995903;28;20054;-89
2021/03/31 03:21:34;;;;;;;16.60;9.57;;;10.10;99.90;;;;;;4995727;28;20061;-90
2021/03/31 03:24:00;;;;;;;17.20;10.27;;;10.10;99.90;;;;;;4995434;28;20204;-90
2021/03/31 03:26:27;;;;;;;20.40;10.07;;;10.10;99.90;;;;;;4995796;28;20050;-90
2021/03/31 03:28:54;;;;;;;18.02;9.65;;;;;;;;;;4996002;28;20050;-90
2021/03/31 03:31:20;;;;;;;21.98;9.60;;;10.10;99.90;;;;;;4995957;28;20398;-89
2021/03/31 03:33:47;;;;;;;17.77;9.57;;;10.10;99.90;;;;;;4995576;28;20057;-89
2021/03/31 03:36:15;;;;;;;18.35;8.70;;;;;;;;;;4995486;28;20065;-90
2021/03/31 03:38:42;;;;;;;17.77;9.90;;;10.10;99.90;;;;;;4995606;28;20046;-89
2021/03/31 03:41:09;;;;;;;18.98;9.45;;;10.10;99.90;;;;;;4995511;28;20050;-89
2021/03/31 03:43:37;;;;;;;15.32;8.32;;;10.10;99.90;;;;;;4995374;28;20042;-90
2021/03/31 03:46:03;;;;;;;14.90;8.75;;;10.00;99.90;;;;;;4995378;28;20463;-90
2021/03/31 03:48:30;;;;;;;15.50;8.60;;;9.90;99.90;;;;;;4995161;28;20125;-90
2021/03/31 03:50:57;;;;;;;17.17;9.20;;;;;;;;;;4995709;28;20052;-89
2021/03/31 03:53:28;;;;;;;20.02;8.38;;;;;;;;;;4995440;28;20058;-90
2021/03/31 03:55:55;;;;;;;16.40;9.68;;;;;;;;;;4995279;28;20055;-90
2021/03/31 03:58:22;;;;;;;19.80;9.48;;;9.70;99.90;;;;;;4995328;28;20396;-90
2021/03/31 04:00:49;;;;;;;13.52;8.73;;;9.70;99.90;;;;;;4995362;28;20077;-90
2021/03/31 04:03:15;;;;;;;20.17;9.70;;;;;;;;;;4995244;28;20046;-89
2021/03/31 04:05:42;;;;;;;15.15;9.52;;;9.70;99.90;;;;;;4995348;28;20061;-90
2021/03/31 04:08:09;;;;;;;19.58;9.98;;;9.70;99.90;;;;;;4995420;28;20065;-89
2021/03/31 04:10:36;;;;;;;18.00;9.27;;;;;;;;;;4995445;28;20050;-89
2021/03/31 04:13:03;;;;;;;19.33;8.55;;;9.70;99.90;;;;;;4995101;28;20061;-90
2021/03/31 04:15:30;;;;;;;18.25;8.48;;;9.60;99.90;;;;;;4995266;28;20046;-89
2021/03/31 04:17:56;;;;;;;17.98;9.02;;;9.70;99.90;;;;;;4995281;28;20057;-89
2021/03/31 04:20:24;;;;;;;22.85;9.25;;;9.60;99.90;;;;;;4995156;28;20054;-90
2021/03/31 04:22:50;;;;;;;14.45;8.43;;;9.70;99.90;;;;;;4995171;28;20104;-89
2021/03/31 04:25:18;;;;;;;16.80;8.57;;;9.60;99.90;;;;;;4995391;28;20400;-89
2021/03/31 04:27:47;;;;;;;18.83;9.05;;;;;;;;;;4994969;28;20060;-89
2021/03/31 04:30:14;;;;;;;15.82;9.00;;;9.50;99.90;;;;;;4994865;28;20077;-89
2021/03/31 04:32:41;;;;;;;14.88;8.38;;;;;;;;;;4994779;28;20133;-89
2021/03/31 04:35:08;;;;;;;17.23;9.18;;;9.60;99.90;;;;;;4994735;28;20058;-90
2021/03/31 04:37:35;;;;;;;13.63;8.57;;;9.50;99.90;;;;;;4994987;28;20050;-89
2021/03/31 04:40:03;;;;;;;19.98;9.20;;;;;;;;;;4995076;28;20050;-90
2021/03/31 04:42:30;;;;;;;19.85;8.38;;;9.40;99.90;;;;;;4994751;28;20060;-89
2021/03/31 04:44:58;;;;;;;20.67;9.35;;;;;;;;;;4995006;28;20538;-89
2021/03/31 04:47:24;;;;;;;12.43;7.55;;;9.40;99.90;;;;;;4994859;28;20061;-89
2021/03/31 04:49:51;;;;;;;19.70;9.35;;;9.40;99.90;;;;;;4994672;28;20050;-89
2021/03/31 04:52:18;;;;;;;13.25;8.68;;;9.40;99.90;;;;;;4995088;28;20112;-90
2021/03/31 04:54:44;;;;;;;16.92;9.95;;;9.40;99.90;;;;;;4994734;28;20043;-89
2021/03/31 04:57:11;;;;;;;15.55;8.98;;;9.40;99.90;;;;;;4994978;28;20106;-89
2021/03/31 04:59:38;;;;;;;18.70;8.95;;;;;;;;;;4994922;28;20050;-89
2021/03/31 05:02:05;;;;;;;19.75;8.80;;;9.40;99.90;;;;;;4994844;28;20073;-89
2021/03/31 05:04:32;;;;;;;14.55;6.95;;;;;;;;;;4994518;28;20061;-89
2021/03/31 05:06:59;;;;;;;17.25;8.45;;;9.40;99.90;;;;;;4994603;28;20051;-89
2021/03/31 05:09:26;;;;;;;20.00;8.85;;;;;;;;;;4994627;28;20043;-89
2021/03/31 05:11:52;;;;;;;17.67;9.48;;;9.40;99.90;;;;;;4994615;28;20050;-89
2021/03/31 05:14:19;;;;;;;17.48;9.00;;;9.40;99.90;;;;;;4994450;28;20054;-89
2021/03/31 05:16:46;;;;;;;17.63;9.32;;;;;;;;;;4994930;28;20058;-89
2021/03/31 05:19:14;;;;;;;13.32;7.93;;;;;;;;;;4994813;28;20076;-89
2021/03/31 05:21:40;;;;;;;19.83;9.52;;;;;;;;;;4994777;28;20100;-89
2021/03/31 05:24:08;;;;;;;21.50;9.07;;;9.30;99.90;;;;;;4997861;28;20054;-90
2021/03/31 05:26:34;;;;;;;22.23;9.43;;;9.30;99.90;;;;;;4998138;28;20379;-89
2021/03/31 05:29:01;;;;;;;20.92;9.93;;;9.30;99.90;;;;;;4997876;28;20050;-89
2021/03/31 05:31:28;;;;;;;15.18;8.55;;;;;;;;;;4998310;28;20357;-89
2021/03/31 05:33:55;;;;;;;18.73;9.07;;;;;;;;;;4997716;28;20463;-89
2021/03/31 05:36:22;;;;;;;17.63;9.13;;;;;;;;;;4997809;28;20054;-89
2021/03/31 05:38:49;;;;;;;19.83;9.55;;;;;;;;;;4997763;28;20046;-89
2021/03/31 05:41:16;;;;;;;20.77;10.52;;;9.20;99.90;;;;;;4997634;28;20056;-89
2021/03/31 05:43:43;;;;;;;18.25;8.73;;;;;;;;;;4997779;28;20057;-90
2021/03/31 05:46:09;;;;;;;18.88;9.57;;;9.20;99.90;;;;;;4997788;28;20140;-88
2021/03/31 05:48:37;;;;;;;17.75;8.32;;;9.20;99.90;;;;;;4997574;28;20058;-89
2021/03/31 05:51:03;;;;;;;20.75;9.48;;;9.10;99.90;;;;;;4998001;28;20061;-90
2021/03/31 05:53:31;;;;;;;20.70;9.70;;;;;;;;;;4997440;28;20049;-89
2021/03/31 05:55:58;;;;;;;16.30;8.75;;;;;;;;;;4997400;28;20112;-90
2021/03/31 05:58:25;;;;;;;19.58;10.10;;;9.10;99.90;;;;;;4997749;28;20046;-89
2021/03/31 06:00:51;;;;;;;17.17;8.18;;;9.10;99.90;;;;;;4997746;28;20427;-90
2021/03/31 06:03:19;;;;;;;15.07;9.73;;;;;;;;;;4997230;28;20042;-90
2021/03/31 06:05:45;;;;;;;19.42;8.77;;;9.20;99.90;;;;;;4997205;28;20058;-90
2021/03/31 06:08:12;;;;;;;19.40;9.43;;;9.20;99.90;;;;;;4997574;28;20065;-90
2021/03/31 06:10:39;;;;;;;22.77;9.73;;;;;;;;;;4997376;28;20084;-90
2021/03/31 06:13:07;;;;;;;17.08;7.82;;;;;;;;;;4997158;28;20043;-89
2021/03/31 06:15:34;;;;;;;17.95;9.52;;;9.20;99.90;;;;;;4997276;28;20111;-90
2021/03/31 06:18:11;;;;;;;16.98;8.20;;;9.30;99.90;;;;;;4997577;28;20061;-89
2021/03/31 06:20:50;;;;;;;24.15;10.40;;;9.30;99.90;;;;;;4996859;28;20065;-89
2021/03/31 06:23:29;;;;;;;28.63;13.30;;;9.30;99.90;;;;;;4997173;28;20046;-87
2021/03/31 06:25:59;;;;;;;39.03;17.15;;;;;;;;;;4997108;28;20478;-91
2021/03/31 06:28:33;;;;;;;41.05;18.17;;;9.30;99.90;;;;;;4997694;28;20086;-90
2021/03/31 06:31:11;;;;;;;37.17;16.00;;;9.30;99.90;;;;;;5001899;28;20105;-88
2021/03/31 06:33:38;;;;;;;36.03;17.08;;;;;;;;;;4992499;28;20375;-87
2021/03/31 06:36:06;;;;;;;35.60;16.48;;;9.40;99.90;;;;;;4977209;28;20062;-88
2021/03/31 06:38:33;;;;;;;31.95;15.25;;;9.30;99.90;;;;;;4977113;28;20082;-87
2021/03/31 06:41:11;;;;;;;39.25;16.02;;;;;;;;;;4977350;28;20051;-88
2021/03/31 06:43:44;;;;;;;29.60;14.15;;;;;;;;;;4977140;28;20061;-88
2021/03/31 06:46:18;;;;;;;29.58;13.18;;;;;;;;;;4990427;28;20054;-88
2021/03/31 06:48:48;;;;;;;29.40;13.13;;;9.60;99.90;;;;;;4996256;28;20081;-87
2021/03/31 06:51:27;;;;;;;34.55;13.38;;;9.60;99.90;;;;;;4996315;28;20046;-88
2021/03/31 06:53:54;;;;;;;27.00;13.43;;;9.70;99.90;;;;;;4996208;28;20051;-87
2021/03/31 06:56:29;;;;;;;22.23;12.63;;;9.70;99.90;;;;;;4996130;28;20061;-87
2021/03/31 06:59:00;;;;;;;35.58;12.85;;;9.70;99.90;;;;;;4996100;28;20054;-87
2021/03/31 07:01:30;;;;;;;27.10;13.75;;;9.90;99.90;;;;;;4996191;28;20137;-88
2021/03/31 07:03:57;;;;;;;24.65;13.35;;;10.00;99.90;;;;;;4986760;28;20043;-88
2021/03/31 07:06:24;;;;;;;31.95;12.40;;;;;;;;;;4976258;28;20464;-88
2021/03/31 07:08:50;;;;;;;37.20;13.27;;;10.10;99.90;;;;;;4976751;28;20050;-87
2021/03/31 07:14:10;;;;;;;29.48;12.52;;;10.20;99.90;;;;;;5133237;27;20784;-86
2021/03/31 07:16:36;;;;;;;22.58;11.68;;;10.30;99.90;;;;;;5132751;28;20047;-87
2021/03/31 07:19:03;;;;;;;27.48;13.88;;;10.50;99.90;;;;;;5132159;28;20138;-86
2021/03/31 07:21:31;;;;;;;30.75;12.32;;;10.90;99.90;;;;;;5132622;28;20055;-86
2021/03/31 07:23:57;;;;;;;29.48;12.45;;;11.40;99.90;;;;;;5132515;28;20058;-86
2021/03/31 07:26:24;;;;;;;31.30;12.45;;;;;;;;;;5132630;27;20053;-86
2021/03/31 07:28:51;;;;;;;31.50;12.07;;;13.30;99.90;;;;;;5132676;28;20423;-85
2021/03/31 07:31:22;;;;;;;27.48;11.18;;;14.70;99.90;;;;;;5132763;28;20433;-85
2021/03/31 07:33:52;;;;;;;25.77;12.10;;;15.20;99.90;;;;;;5131950;28;20050;-84
2021/03/31 07:36:18;;;;;;;41.25;14.13;;;14.90;99.90;;;;;;5132811;28;20051;-84
2021/03/31 07:38:45;;;;;;;32.63;12.57;;;14.40;99.90;;;;;;5132312;28;20048;-85
2021/03/31 07:41:12;;;;;;;27.92;11.38;;;13.90;99.90;;;;;;5132243;28;20452;-85
2021/03/31 07:43:39;;;;;;;31.27;11.63;;;13.50;99.90;;;;;;5132433;28;20053;-85
2021/03/31 07:46:07;;;;;;;23.52;11.57;;;12.90;99.90;;;;;;5132005;28;20051;-85
2021/03/31 07:48:35;;;;;;;35.60;12.00;;;12.90;99.90;;;;;;5132039;28;20440;-85
2021/03/31 07:51:15;;;;;;;23.75;11.43;;;12.70;99.90;;;;;;5131893;28;20047;-85
2021/03/31 07:53:43;;;;;;;30.25;13.57;;;;;;;;;;5131420;28;20047;-85
2021/03/31 07:56:13;;;;;;;32.67;11.63;;;12.50;99.90;;;;;;5131962;27;20051;-85
2021/03/31 07:58:39;;;;;;;27.00;12.68;;;12.50;99.90;;;;;;5131888;27;20058;-85
2021/03/31 08:01:08;;;;;;;25.73;11.65;;;12.50;99.90;;;;;;5132109;27;20051;-86
2021/03/31 08:03:36;;;;;;;29.80;13.52;;;12.40;99.90;;;;;;5131667;27;20040;-85
2021/03/31 08:06:17;;;;;;;25.88;12.02;;;12.80;99.90;;;;;;5132009;28;20064;-85
2021/03/31 08:09:02;;;;;;;27.00;12.13;;;12.80;99.90;;;;;;5132069;28;20054;-85
2021/03/31 08:11:52;;;;;;;25.33;11.73;;;13.00;99.90;;;;;;5131680;27;20044;-85
2021/03/31 08:14:20;;;;;;;26.25;11.90;;;;;;;;;;5132035;27;20066;-85
2021/03/31 08:16:47;;;;;;;33.17;12.30;;;13.10;99.90;;;;;;5132174;27;20380;-85
2021/03/31 08:19:16;;;;;;;31.55;12.25;;;13.00;99.90;;;;;;5131987;28;20129;-85
2021/03/31 08:21:44;;;;;;;31.90;12.43;;;13.00;99.90;;;;;;5131343;28;20051;-85
2021/03/31 08:24:11;;;;;;;26.38;12.23;;;13.20;99.90;;;;;;5125189;28;20134;-85
2021/03/31 08:26:40;;;;;;;23.80;13.32;;;12.90;99.90;;;;;;5117614;28;20048;-85
2021/03/31 08:29:07;;;;;;;28.48;11.05;;;13.10;99.90;;;;;;5117770;28;20044;-85
2021/03/31 08:31:36;;;;;;;24.52;10.77;;;13.00;99.90;;;;;;5117541;28;20452;-82
2021/03/31 08:34:03;;;;;;;27.15;13.05;;;13.10;99.90;;;;;;5117282;28;20043;-85
2021/03/31 08:36:31;;;;;;;21.35;10.35;;;13.20;99.90;;;;;;5117363;28;20183;-85
2021/03/31 08:38:59;;;;;;;24.33;10.88;;;13.30;99.90;;;;;;5117645;28;20051;-85
2021/03/31 08:41:26;;;;;;;27.35;10.10;;;13.40;99.90;;;;;;5117218;28;20349;-85
2021/03/31 08:44:08;;;;;;;18.70;9.10;;;13.40;99.90;;;;;;5117670;28;20051;-85
2021/03/31 08:46:35;;;;;;;22.73;10.88;;;13.40;99.90;;;;;;5116915;28;20044;-85
2021/03/31 08:49:01;;;;;;;28.08;12.20;;;13.30;99.90;;;;;;5117615;28;20483;-85
2021/03/31 08:51:28;;;;;;;25.30;10.63;;;13.40;99.90;;;;;;5117469;28;20048;-85
2021/03/31 08:54:00;;;;;;;18.58;10.30;;;13.30;99.90;;;;;;5117102;28;20054;-85
2021/03/31 08:56:27;;;;;;;21.50;11.98;;;13.30;99.90;;;;;;5117157;28;20120;-85
2021/03/31 08:58:55;;;;;;;21.55;10.43;;;13.30;99.90;;;;;;5117075;28;20361;-84
2021/03/31 09:01:25;;;;;;;19.55;9.52;;;13.30;99.90;;;;;;5117106;28;20059;-84
2021/03/31 09:03:52;;;;;;;20.70;10.02;;;;;;;;;;5116497;28;20050;-85
2021/03/31 09:06:19;;;;;;;21.58;10.00;;;13.30;99.90;;;;;;5117342;28;20054;-85
2021/03/31 09:08:47;;;;;;;17.65;9.70;;;;;;;;;;5116982;28;20047;-85
2021/03/31 09:11:19;;;;;;;18.15;10.30;;;13.40;99.90;;;;;;5116928;27;20051;-85
2021/03/31 09:13:46;;;;;;;17.73;9.45;;;13.40;99.90;;;;;;5116462;28;20051;-85
2021/03/31 09:16:14;;;;;;;23.45;10.73;;;13.30;99.90;;;;;;5116791;28;20060;-85
2021/03/31 09:18:41;;;;;;;24.65;9.75;;;13.30;99.90;;;;;;5117034;28;20051;-85
2021/03/31 09:21:08;;;;;;;33.30;13.10;;;13.50;99.90;;;;;;5116520;28;20047;-85
2021/03/31 09:23:34;;;;;;;26.33;9.40;;;13.50;99.90;;;;;;5116464;28;20047;-85
2021/03/31 09:26:03;;;;;;;19.98;9.38;;;13.90;99.90;;;;;;5116775;28;20052;-84
2021/03/31 09:28:32;;;;;;;19.95;9.80;;;13.60;99.90;;;;;;5116782;28;20065;-84
2021/03/31 09:31:07;;;;;;;25.08;10.98;;;13.60;99.90;;;;;;5116439;28;20061;-84
2021/03/31 09:33:35;;;;;;;;;;;13.70;99.90;;;;;;5116602;28;20133;-83
2021/03/31 09:36:12;;;;;;;18.92;10.30;;;13.70;99.90;;;;;;5115423;28;19923;-85
2021/03/31 09:38:38;;;;;;;23.75;10.02;;;13.70;99.90;;;;;;5116580;28;20059;-84
2021/03/31 09:41:06;;;;;;;23.77;11.70;;;13.70;99.90;;;;;;5116518;28;20058;-84
2021/03/31 09:43:34;;;;;;;16.67;8.80;;;;;;;;;;5116670;28;20344;-84
2021/03/31 09:46:01;;;;;;;27.83;11.07;;;13.70;99.90;;;;;;5116276;28;20115;-85
2021/03/31 09:48:28;;;;;;;19.33;9.65;;;13.80;99.90;;;;;;5116517;28;20047;-84
2021/03/31 09:50:54;;;;;;;24.55;10.98;;;13.80;99.90;;;;;;5116213;28;20054;-84
2021/03/31 09:53:24;;;;;;;28.10;11.18;;;13.80;99.90;;;;;;5116216;28;20052;-84
2021/03/31 09:55:51;;;;;;;23.80;10.30;;;13.80;99.90;;;;;;5115916;28;20372;-84
2021/03/31 09:58:24;;;;;;;21.30;10.95;;;13.90;99.90;;;;;;5116098;28;20052;-84
2021/03/31 10:00:52;;;;;;;19.98;9.05;;;14.00;99.90;;;;;;5116017;28;20047;-84
2021/03/31 10:03:19;;;;;;;23.17;9.75;;;13.90;99.90;;;;;;5115846;28;20043;-85
2021/03/31 10:05:46;;;;;;;22.75;12.88;;;14.00;99.90;;;;;;5115742;28;20090;-84
2021/03/31 10:08:20;;;;;;;25.33;11.30;;;14.10;99.90;;;;;;5115893;28;20052;-84
2021/03/31 10:10:47;;;;;;;;;;;14.20;99.90;;;;;;5116217;28;20065;-84
2021/03/31 10:13:15;;;;;;;14.57;8.70;;;14.30;99.90;;;;;;5115340;28;19919;-84
2021/03/31 10:15:42;;;;;;;21.08;10.05;;;14.40;99.90;;;;;;5115526;28;20065;-84
2021/03/31 10:18:10;;;;;;;19.25;10.90;;;14.60;99.90;;;;;;5115586;28;20082;-84
2021/03/31 10:20:42;;;;;;;19.15;10.07;;;14.60;99.90;;;;;;5115529;28;20502;-85
2021/03/31 10:23:20;;;;;;;21.98;11.48;;;14.60;99.90;;;;;;5115680;28;20444;-84
2021/03/31 10:25:47;;;;;;;19.73;10.30;;;14.80;99.90;;;;;;5115376;28;20447;-84
2021/03/31 10:28:34;;;;;;;27.13;11.90;;;14.80;99.90;;;;;;5115660;28;20072;-84
2021/03/31 10:31:23;;;;;;;19.95;9.43;;;14.90;99.90;;;;;;5115692;28;20051;-84
2021/03/31 10:33:50;;;;;;;18.10;9.20;;;;;;;;;;5115156;28;20455;-84
2021/03/31 10:36:47;;;;;;;23.02;10.43;;;14.90;99.90;;;;;;5115456;28;20051;-84
2021/03/31 10:48:02;;;;;;;16.33;9.98;;;;;;;;;;5070448;28;20047;-84
2021/03/31 10:50:32;;;;;;;20.90;9.20;;;;;;;;;;5115088;28;20098;-84
2021/03/31 10:53:00;;;;;;;20.70;9.40;;;15.20;99.90;;;;;;5114973;28;20043;-84
2021/03/31 10:55:27;;;;;;;20.25;10.13;;;15.20;99.90;;;;;;5115123;28;20108;-84
2021/03/31 10:57:53;;;;;;;15.13;9.43;;;15.30;99.90;;;;;;5115162;28;20047;-84
2021/03/31 11:00:21;;;;;;;15.57;9.48;;;;;;;;;;5115168;28;20054;-84
2021/03/31 11:02:47;;;;;;;15.50;7.47;;;14.40;99.90;;;;;;5114831;28;20070;-84
2021/03/31 11:05:14;;;;;;;22.70;10.07;;;15.40;99.90;;;;;;5114545;28;20051;-84
2021/03/31 11:07:42;;;;;;;17.88;8.95;;;;;;;;;;5114937;28;20064;-84
2021/03/31 11:10:14;;;;;;;16.05;8.82;;;15.50;99.90;;;;;;5114876;28;20043;-84
2021/03/31 11:12:42;;;;;;;16.48;8.27;;;;;;;;;;5114381;28;20500;-84
2021/03/31 11:15:11;;;;;;;19.38;8.95;;;15.40;99.90;;;;;;5114672;28;20055;-84
2021/03/31 11:17:44;;;;;;;18.27;8.85;;;;;;;;;;5114753;28;20047;-84
2021/03/31 11:20:24;;;;;;;17.85;8.77;;;15.60;99.90;;;;;;5114943;28;20048;-84
2021/03/31 11:25:47;;;;;;;17.42;8.57;;;15.70;99.90;;;;;;5114688;28;20050;-84
2021/03/31 11:28:14;;;;;;;15.93;9.02;;;15.50;99.90;;;;;;5114474;28;20059;-84
2021/03/31 11:30:40;;;;;;;24.05;10.60;;;15.60;99.90;;;;;;5114897;28;20061;-84
2021/03/31 11:33:07;;;;;;;13.63;8.23;;;;;;;;;;5114210;28;20040;-83
2021/03/31 11:35:37;;;;;;;16.50;8.77;;;;;;;;;;5114470;28;20065;-86
2021/03/31 11:38:05;;;;;;;13.98;8.52;;;;;;;;;;5120464;28;20047;-85
2021/03/31 11:40:32;;;;;;;19.35;8.82;;;;;;;;;;5118183;28;20131;-86
2021/03/31 11:42:59;;;;;;;19.67;10.90;;;15.80;99.90;;;;;;5118229;28;20434;-87
2021/03/31 11:45:25;;;;;;;18.65;9.07;;;15.70;99.90;;;;;;5114292;28;20521;-82
2021/03/31 11:47:52;;;;;;;14.55;9.48;;;15.70;99.90;;;;;;5114415;28;20047;-83
2021/03/31 11:50:19;;;;;;;18.48;8.50;;;15.60;99.90;;;;;;5114273;28;20058;-83
2021/03/31 11:52:45;;;;;;;16.10;8.75;;;15.70;99.90;;;;;;5114414;28;20058;-83
2021/03/31 11:55:13;;;;;;;14.38;9.05;;;;;;;;;;5114336;28;20051;-82
2021/03/31 11:57:40;;;;;;;11.93;7.70;;;16.00;99.90;;;;;;5114443;28;20055;-82
2021/03/31 12:00:10;;;;;;;20.08;8.20;;;16.10;99.90;;;;;;5116765;28;20050;-81
2021/03/31 12:02:37;;;;;;;19.67;8.88;;;16.20;99.90;;;;;;5118576;28;20047;-82
2021/03/31 12:05:04;;;;;;;15.13;8.70;;;16.40;99.90;;;;;;5117967;28;20054;-82
2021/03/31 12:07:31;;;;;;;16.25;9.13;;;16.50;99.90;;;;;;5117982;28;20047;-82
2021/03/31 12:09:57;;;;;;;19.02;9.25;;;16.50;99.90;;;;;;5118177;28;20062;-82
2021/03/31 12:12:25;;;;;;;16.13;9.43;;;;;;;;;;5117577;28;20066;-81
2021/03/31 12:14:51;;;;;;;22.27;9.20;;;16.70;99.90;;;;;;5118026;28;20104;-82
2021/03/31 12:17:18;;;;;;;18.52;9.10;;;16.60;99.90;;;;;;5118218;28;20372;-86
2021/03/31 12:19:45;;;;;;;15.15;7.85;;;;;;;;;;5117861;28;20109;-82
2021/03/31 12:22:11;;;;;;;18.05;9.90;;;16.40;99.90;;;;;;5117753;28;20048;-83
2021/03/31 12:24:38;;;;;;;14.88;8.30;;;16.50;99.90;;;;;;5117981;28;20360;-84
2021/03/31 12:27:08;;;;;;;16.48;8.43;;;16.60;99.90;;;;;;5117489;28;20047;-84
2021/03/31 12:29:36;;;;;;;15.27;8.73;;;;;;;;;;5117316;27;20440;-84
2021/03/31 12:32:03;;;;;;;16.10;8.23;;;16.80;99.90;;;;;;5117710;28;20059;-86
2021/03/31 12:34:32;;;;;;;15.80;9.48;;;16.90;99.90;;;;;;5116916;28;20055;-86
2021/03/31 12:36:59;;;;;;;20.67;9.25;;;16.90;99.90;;;;;;5117231;28;20058;-85
2021/03/31 12:39:26;;;;;;;17.73;9.32;;;;;;;;;;5117549;28;20061;-86
2021/03/31 12:41:52;;;;;;;15.70;8.68;;;16.90;99.90;;;;;;5117482;28;20052;-86
2021/03/31 12:44:19;;;;;;;19.27;9.88;;;16.90;99.90;;;;;;5117416;28;20043;-86
2021/03/31 12:46:46;;;;;;;18.85;9.10;;;16.90;99.90;;;;;;5117447;28;20047;-86
2021/03/31 12:49:13;;;;;;;17.83;9.20;;;;;;;;;;5117220;28;20055;-86
2021/03/31 12:51:42;;;;;;;16.17;8.63;;;17.00;99.90;;;;;;5117138;28;20043;-86
2021/03/31 12:54:12;;;;;;;13.10;8.60;;;;;;;;;;5116968;28;20044;-86
2021/03/31 12:56:39;;;;;;;14.45;8.38;;;17.00;99.90;;;;;;5117088;28;20456;-86
2021/03/31 12:59:06;;;;;;;16.15;8.70;;;;;;;;;;5117372;28;20058;-86
2021/03/31 13:01:33;;;;;;;19.05;8.52;;;;;;;;;;5116928;28;20138;-85
2021/03/31 13:04:01;;;;;;;15.27;7.70;;;;;;;;;;5116770;28;20043;-86
2021/03/31 13:06:30;;;;;;;17.35;9.52;;;17.00;99.90;;;;;;5116993;28;20104;-86
2021/03/31 13:08:57;;;;;;;17.02;9.00;;;17.00;99.90;;;;;;5116793;28;20055;-86
2021/03/31 13:11:24;;;;;;;18.58;9.30;;;17.00;99.90;;;;;;5116862;28;20051;-86
2021/03/31 13:16:41;;;;;;;15.82;8.35;;;;;;;;;;5102348;28;20466;-87
2021/03/31 13:24:44;;;;;;;17.95;8.68;;;17.10;99.90;;;;;;5092565;28;20043;-86
2021/03/31 13:27:18;;;;;;;14.70;8.77;;;17.10;99.90;;;;;;5096238;28;20482;-86
2021/03/31 13:30:05;;;;;;;13.32;9.07;;;17.20;99.90;;;;;;5096048;28;20058;-86
2021/03/31 13:32:34;;;;;;;19.95;10.57;;;17.30;99.90;;;;;;5096062;28;20464;-86